Time;durP1;ratioP1;P1;durP2;ratioP2;P2;SDS_P1;SDS_P2;PMS_P1;PMS_P2;Temp;Humidity;BMP_temperature;BMP_pressure;BME280_temperature;BME280_humidity;BME280_pressure;Samples;Min_cycle;Max_cycle;Signal;HPM_P1;HPM_P2
2022/07/05 00:02:24;;;;;;;4.50;3.55;;;;;;;22.70;44.29;94012.34;5025543;28;20044;-78
2022/07/05 00:04:50;;;;;;;4.45;3.00;;;;;;;22.81;43.86;94028.66;5025786;28;20053;-77
2022/07/05 00:07:19;;;;;;;4.70;3.45;;;;;;;22.74;43.57;94026.69;5024659;28;20402;-79
2022/07/05 00:09:46;;;;;;;4.55;3.67;;;;;;;22.60;43.58;94008.47;5022744;28;20117;-79
2022/07/05 00:12:13;;;;;;;3.83;3.13;;;;;;;22.53;43.61;94003.06;5029480;28;20034;-78
2022/07/05 00:14:39;;;;;;;4.78;3.30;;;;;;;22.60;44.24;94023.94;5023156;28;20161;-79
2022/07/05 00:17:04;;;;;;;3.33;3.00;;;;;;;22.62;43.54;94018.94;5037802;28;20053;-77
2022/07/05 00:19:30;;;;;;;3.40;3.10;;;;;;;22.43;44.20;94006.50;5022895;28;20663;-79
2022/07/05 00:21:56;;;;;;;6.22;3.08;;;;;;;22.19;44.48;93988.97;5023625;28;20031;-78
2022/07/05 00:24:21;;;;;;;3.22;2.70;;;;;;;22.18;44.94;94003.69;5024450;28;20037;-78
2022/07/05 00:26:47;;;;;;;4.28;2.85;;;;;;;22.17;44.86;94018.38;5025471;28;20033;-78
2022/07/05 00:29:12;;;;;;;3.85;3.10;;;;;;;22.04;43.87;94019.13;5023086;28;20090;-78
2022/07/05 00:31:37;;;;;;;6.97;2.88;;;;;;;22.16;44.33;94022.25;5023182;28;20026;-79
2022/07/05 00:34:03;;;;;;;4.00;3.38;;;;;;;22.10;44.80;94007.50;5021804;28;20044;-79
2022/07/05 00:36:28;;;;;;;3.72;3.03;;;;;;;22.15;44.82;94017.97;5024982;28;20401;-79
2022/07/05 00:38:54;;;;;;;3.35;3.05;;;;;;;22.11;44.67;94014.50;5024827;28;20034;-78
2022/07/05 00:41:19;;;;;;;4.38;2.90;;;;;;;22.13;44.72;93998.66;5036370;28;20721;-77
2022/07/05 00:44:13;;;;;;;3.97;3.42;;;;;;;22.20;44.05;94012.19;5024312;28;20473;-78
2022/07/05 00:46:41;;;;;;;3.25;2.95;;;;;;;21.95;44.29;94014.03;5023741;28;20045;-77
2022/07/05 00:49:07;;;;;;;5.53;3.08;;;;;;;21.60;43.37;93973.25;5022110;28;20041;-78
2022/07/05 00:51:35;;;;;;;3.25;2.90;;;;;;;21.81;43.33;93995.00;5028445;28;20033;-78
2022/07/05 00:54:01;;;;;;;4.15;2.83;;;;;;;21.84;42.15;93980.72;5021459;28;20044;-78
2022/07/05 00:56:27;;;;;;;5.35;3.20;;;;;;;22.00;43.37;93992.00;5021913;28;20046;-79
2022/07/05 00:58:52;;;;;;;3.20;2.58;;;;;;;21.88;43.93;93986.94;5022105;28;20034;-79
2022/07/05 01:01:18;;;;;;;3.63;2.78;;;;;;;21.90;43.82;93997.38;5021097;28;20029;-78
2022/07/05 01:03:45;;;;;;;3.17;2.55;;;;;;;21.75;43.99;94001.97;5023631;28;20315;-79
2022/07/05 01:06:12;;;;;;;4.07;3.10;;;;;;;21.66;44.26;94009.63;5026667;28;20053;-80
2022/07/05 01:08:43;;;;;;;4.22;3.10;;;;;;;21.66;45.03;94010.41;5025650;28;20049;-78
2022/07/05 01:11:10;;;;;;;3.50;2.90;;;;;;;21.35;44.78;93973.09;5024416;28;20041;-79
2022/07/05 01:13:36;;;;;;;3.42;2.53;;;;;;;21.27;43.03;94007.41;5024619;28;20032;-78
2022/07/05 01:16:03;;;;;;;3.55;3.10;;;;;;;21.43;43.91;94026.84;5023034;28;20418;-79
2022/07/05 01:18:28;;;;;;;3.42;2.38;;;;;;;21.42;44.38;94003.66;5025184;28;20553;-78
2022/07/05 01:20:54;;;;;;;4.60;2.63;;;;;;;21.37;44.71;94022.94;5027687;28;20064;-79
2022/07/05 01:23:20;;;;;;;5.30;3.35;;;;;;;21.26;44.08;93981.53;5030130;28;20060;-79
2022/07/05 01:25:49;;;;;;;3.58;3.22;;;;;;;21.56;43.75;94013.81;5021651;28;20049;-78
2022/07/05 01:28:15;;;;;;;4.22;2.70;;;;;;;21.58;43.86;94018.84;5021615;28;20066;-79
2022/07/05 01:30:42;;;;;;;2.92;2.63;;;;;;;21.63;43.28;94018.50;5009021;28;20619;-79
2022/07/05 01:33:09;;;;;;;3.25;2.83;;;;;;;21.56;42.79;94010.34;5009635;28;20037;-80
2022/07/05 01:35:36;;;;;;;3.25;2.60;;;;;;;21.56;42.92;94023.88;5012552;28;20033;-80
2022/07/05 01:38:02;;;;;;;4.22;2.78;;;;;;;21.61;42.77;94037.81;5009111;28;20048;-80
2022/07/05 01:40:28;;;;;;;4.13;2.88;;;;;;;21.58;43.98;94024.28;5006634;28;20022;-81
2022/07/05 01:42:53;;;;;;;3.67;2.22;;;;;;;21.53;43.02;94013.78;5008026;28;20517;-79
2022/07/05 01:45:41;;;;;;;3.70;2.85;;;;;;;21.57;42.91;94003.78;5009737;28;20030;-79
2022/07/05 01:48:17;;;;;;;3.85;2.65;;;;;;;21.75;42.54;94005.44;5007602;28;20037;-80
2022/07/05 01:50:53;;;;;;;3.03;2.40;;;;;;;21.73;42.19;93999.63;5014037;28;20038;-80
2022/07/05 01:53:23;;;;;;;3.50;2.30;;;;;;;21.79;42.53;94002.75;5010918;28;20099;-80
2022/07/05 01:55:48;;;;;;;3.50;2.65;;;;;;;21.89;42.46;94012.84;5003608;28;20049;-80
2022/07/05 01:58:14;;;;;;;4.25;2.53;;;;;;;21.91;42.64;94013.22;5008566;28;20129;-80
2022/07/05 02:00:51;;;;;;;4.57;2.72;;;;;;;21.91;43.03;94015.94;5009050;28;20107;-80
2022/07/05 02:03:17;;;;;;;2.97;2.67;;;;;;;21.88;43.04;94011.28;5008840;28;20553;-79
2022/07/05 02:05:43;;;;;;;4.20;2.28;;;;;;;21.84;42.17;94007.81;5009267;28;20172;-80
2022/07/05 02:08:10;;;;;;;2.70;2.42;;;;;;;21.74;42.49;94000.41;5008661;28;20049;-80
2022/07/05 02:10:36;;;;;;;2.10;1.90;;;;;;;21.84;42.48;94010.50;5011192;28;20022;-81
2022/07/05 02:13:03;;;;;;;4.05;2.65;;;;;;;21.77;42.86;93999.63;5008933;28;20045;-80
2022/07/05 02:15:33;;;;;;;3.00;2.55;;;;;;;21.78;42.41;94003.91;5007187;28;20068;-80
2022/07/05 02:18:00;;;;;;;4.03;3.17;;;;;;;21.43;42.64;93972.75;5010748;28;20104;-82
2022/07/05 02:20:26;;;;;;;2.83;2.50;;;;;;;21.52;43.07;93993.28;5009005;28;20037;-81
2022/07/05 02:22:52;;;;;;;3.38;3.08;;;;;;;21.74;42.55;94022.06;5008766;28;20032;-80
2022/07/05 02:25:17;;;;;;;10.27;4.28;;;;;;;21.77;42.70;94022.06;5015409;28;20025;-81
2022/07/05 02:27:43;;;;;;;3.58;2.85;;;;;;;21.58;43.04;93989.09;5010774;28;20099;-83
2022/07/05 02:30:09;;;;;;;3.50;2.70;;;;;;;21.58;43.64;94008.03;5013532;28;20531;-81
2022/07/05 02:32:34;;;;;;;5.68;2.67;;;;;;;21.07;43.82;93940.44;5012865;28;20048;-81
2022/07/05 02:35:00;;;;;;;3.33;2.65;;;;;;;21.31;44.31;94013.66;5012927;28;20022;-81
2022/07/05 02:37:26;;;;;;;2.50;2.22;;;;;;;21.18;44.40;93996.16;5025224;28;21008;-81
2022/07/05 02:39:52;;;;;;;4.32;2.85;;;;;;;21.41;44.43;94029.16;5012946;28;20037;-80
2022/07/05 02:42:17;;;;;;;4.75;2.95;;;;;;;21.27;44.41;94014.75;5024593;28;20033;-80
2022/07/05 02:44:42;;;;;;;2.88;2.60;;;;;;;21.33;44.38;94040.31;5013245;28;20038;-81
2022/07/05 02:47:08;;;;;;;4.30;3.35;;;;;;;21.30;44.33;94025.63;5017243;28;20697;-81
2022/07/05 02:49:34;;;;;;;3.40;3.10;;;;;;;21.27;44.55;94015.53;5013514;28;20017;-80
2022/07/05 02:51:59;;;;;;;6.18;3.70;;;;;;;21.53;44.67;94043.53;5012582;28;20037;-81
2022/07/05 02:54:25;;;;;;;4.70;3.35;;;;;;;21.50;44.76;94033.47;5012210;28;20088;-80
2022/07/05 02:56:50;;;;;;;4.32;3.47;;;;;;;21.23;44.82;94003.91;5012691;28;20041;-82
2022/07/05 02:59:15;;;;;;;3.92;3.22;;;;;;;21.29;45.30;94029.47;5011762;28;20030;-81
2022/07/05 03:01:41;;;;;;;4.13;3.33;;;;;;;21.20;45.56;94020.91;5012850;28;20083;-80
2022/07/05 03:04:06;;;;;;;5.20;3.75;;;;;;;21.10;45.55;94018.88;5025764;28;20037;-81
2022/07/05 03:06:32;;;;;;;5.32;3.38;;;;;;;21.31;45.11;94042.63;5011490;28;20501;-81
2022/07/05 03:08:57;;;;;;;4.38;3.72;;;;;;;21.23;45.44;94041.78;5011200;28;20026;-81
2022/07/05 03:11:23;;;;;;;3.33;2.85;;;;;;;21.16;45.09;94022.81;5009700;28;20049;-81
2022/07/05 03:13:48;;;;;;;4.18;3.55;;;;;;;21.11;44.77;94014.25;5011976;28;20547;-81
2022/07/05 03:16:14;;;;;;;6.20;3.60;;;;;;;21.13;44.77;94015.41;5012961;28;20037;-80
2022/07/05 03:18:39;;;;;;;5.13;3.75;;;;;;;21.11;45.44;94028.56;5012252;28;21218;-80
2022/07/05 03:21:04;;;;;;;3.95;3.50;;;;;;;21.21;45.17;94025.16;5012183;28;20037;-80
2022/07/05 03:23:30;;;;;;;3.00;2.53;;;;;;;21.29;45.40;94045.69;5011541;28;20512;-80
2022/07/05 03:25:55;;;;;;;5.75;3.45;;;;;;;21.24;46.01;94043.34;5009193;28;20033;-80
2022/07/05 03:28:20;;;;;;;4.15;3.75;;;;;;;21.35;45.87;94044.19;5012530;28;20648;-81
2022/07/05 03:30:46;;;;;;;3.95;3.17;;;;;;;21.30;46.35;94028.31;5011457;28;20044;-81
2022/07/05 03:33:11;;;;;;;3.63;3.13;;;;;;;21.20;46.14;94004.69;5012110;28;20490;-80
2022/07/05 03:35:37;;;;;;;4.97;3.78;;;;;;;21.18;46.25;94017.78;5010382;28;20092;-81
2022/07/05 03:38:02;;;;;;;3.47;3.00;;;;;;;21.45;46.14;94038.09;5011838;28;20746;-80
2022/07/05 03:40:28;;;;;;;5.43;4.13;;;;;;;21.32;46.42;94017.09;5016705;28;20470;-81
2022/07/05 03:42:53;;;;;;;5.28;3.78;;;;;;;21.39;46.93;94026.06;5012742;28;20647;-80
2022/07/05 03:45:19;;;;;;;6.30;3.45;;;;;;;21.42;47.04;94022.59;5008817;28;20045;-80
2022/07/05 03:47:44;;;;;;;6.07;3.70;;;;;;;21.18;46.48;93981.84;5011990;28;20090;-82
2022/07/05 03:50:10;;;;;;;4.10;3.63;;;;;;;21.36;47.28;94007.84;5014656;28;20021;-81
2022/07/05 03:52:35;;;;;;;7.18;4.20;;;;;;;21.41;46.96;94004.81;5008625;28;20029;-81
2022/07/05 03:55:00;;;;;;;4.50;3.67;;;;;;;21.42;47.88;94006.34;5010045;28;20038;-82
2022/07/05 03:57:26;;;;;;;4.35;3.55;;;;;;;21.47;48.14;94010.63;5010300;28;20513;-81
2022/07/05 03:59:51;;;;;;;9.80;3.05;;;;;;;21.59;47.38;94025.81;5009813;28;20424;-81
2022/07/05 04:02:17;;;;;;;3.33;2.80;;;;;;;21.71;45.71;94028.97;5011550;28;20119;-80
2022/07/05 04:04:42;;;;;;;4.97;3.08;;;;;;;21.77;44.73;94026.69;5010211;28;21042;-81
2022/07/05 04:07:08;;;;;;;4.80;3.00;;;;;;;21.54;44.88;94009.91;5012375;28;20412;-81
2022/07/05 04:09:33;;;;;;;3.63;2.95;;;;;;;21.49;44.87;94021.88;5015096;28;20078;-82
2022/07/05 04:11:59;;;;;;;4.72;2.75;;;;;;;21.44;44.10;94003.28;5010744;28;20494;-81
2022/07/05 04:14:24;;;;;;;3.17;2.80;;;;;;;21.40;43.59;94008.69;5009121;28;20041;-81
2022/07/05 04:16:49;;;;;;;4.00;2.80;;;;;;;21.58;42.96;94032.38;5012028;28;20116;-81
2022/07/05 04:19:16;;;;;;;3.33;2.58;;;;;;;21.54;42.64;94004.50;5025046;28;20034;-80
2022/07/05 04:21:41;;;;;;;3.50;2.95;;;;;;;21.73;42.07;94036.75;5010363;28;20117;-80
2022/07/05 04:24:07;;;;;;;6.55;3.13;;;;;;;21.67;42.20;94011.19;5009844;28;20040;-82
2022/07/05 04:26:33;;;;;;;3.95;3.25;;;;;;;21.64;42.16;94022.78;5011322;28;20053;-81
2022/07/05 04:28:58;;;;;;;4.05;2.90;;;;;;;21.39;41.74;93988.19;5011285;28;20017;-81
2022/07/05 04:31:23;;;;;;;4.47;3.28;;;;;;;21.57;42.06;94003.78;5009988;28;20604;-80
2022/07/05 04:33:50;;;;;;;5.07;3.30;;;;;;;21.85;42.17;94022.91;5010820;28;20041;-81
2022/07/05 04:36:15;;;;;;;4.13;3.10;;;;;;;21.95;42.66;94011.31;5009248;28;20032;-81
2022/07/05 04:38:41;;;;;;;6.38;3.35;;;;;;;22.11;42.27;94025.31;5008478;28;20118;-81
2022/07/05 04:41:06;;;;;;;4.88;3.50;;;;;;;21.95;41.91;94000.47;5009373;28;20203;-81
2022/07/05 04:43:33;;;;;;;5.70;3.40;;;;;;;21.81;41.26;93981.47;5006433;28;20437;-82
2022/07/05 04:45:59;;;;;;;2.80;2.40;;;;;;;22.40;41.31;94030.88;5010085;28;20026;-81
2022/07/05 04:48:24;;;;;;;5.70;3.78;;;;;;;22.25;41.08;93986.69;5007161;28;20490;-81
2022/07/05 04:50:50;;;;;;;7.40;3.20;;;;;;;22.46;41.07;94011.16;5008979;28;20068;-81
2022/07/05 04:53:16;;;;;;;5.28;3.80;;;;;;;22.50;40.37;94020.06;5007727;28;20041;-82
2022/07/05 04:55:42;;;;;;;3.97;3.33;;;;;;;22.33;40.85;94017.31;5009446;28;20018;-81
2022/07/05 04:58:07;;;;;;;4.20;3.50;;;;;;;21.87;41.55;93942.06;5011060;28;21186;-81
2022/07/05 05:00:32;;;;;;;4.40;3.65;;;;;;;22.20;42.16;94017.63;5021535;28;20045;-79
2022/07/05 05:02:58;;;;;;;4.63;3.22;;;;;;;22.52;42.04;94028.59;5013527;28;20052;-79
2022/07/05 05:05:23;;;;;;;5.18;3.75;;;;;;;22.58;42.46;94029.78;5013386;28;20132;-80
2022/07/05 05:07:48;;;;;;;5.50;3.97;;;;;;;22.60;42.16;94015.81;5008573;28;20053;-79
2022/07/05 05:10:14;;;;;;;4.30;3.58;;;;;;;22.76;42.20;94034.44;5012750;28;20042;-79
2022/07/05 05:12:39;;;;;;;7.28;4.28;;;;;;;22.87;41.61;94033.34;5015267;28;20445;-79
2022/07/05 05:15:09;;;;;;;4.32;3.50;;;;;;;22.90;41.68;94043.41;5009497;28;20377;-79
2022/07/05 05:17:39;;;;;;;3.95;2.95;;;;;;;22.96;40.71;94047.31;5016534;28;20041;-80
2022/07/05 05:20:10;;;;;;;4.10;3.42;;;;;;;22.93;40.12;94045.34;5017968;28;20067;-80
2022/07/05 05:22:35;;;;;;;4.82;3.42;;;;;;;22.76;41.04;94018.97;5008544;28;20022;-79
2022/07/05 05:25:01;;;;;;;4.47;3.70;;;;;;;22.79;41.06;94036.38;5007999;28;20053;-80
2022/07/05 05:27:26;;;;;;;3.97;3.40;;;;;;;22.58;41.48;94046.03;5004762;28;20515;-79
2022/07/05 05:29:51;;;;;;;10.38;3.58;;;;;;;22.22;41.04;94042.44;5006685;28;20108;-80
2022/07/05 05:32:17;;;;;;;5.07;3.13;;;;;;;22.10;41.72;94040.00;5005686;28;20045;-80
2022/07/05 05:34:42;;;;;;;6.57;3.92;;;;;;;22.16;41.20;94016.81;5009088;28;20036;-79
2022/07/05 05:37:08;;;;;;;7.40;3.50;;;;;;;22.39;42.08;94034.75;5007846;28;20406;-79
2022/07/05 05:39:33;;;;;;;6.25;3.08;;;;;;;22.34;42.37;94018.88;5009716;28;20037;-80
2022/07/05 05:41:58;;;;;;;4.07;3.47;;;;;;;22.41;41.52;94018.88;5006033;28;20115;-79
2022/07/05 05:44:24;;;;;;;5.93;4.35;;;;;;;22.55;40.55;94035.94;5008279;28;20045;-80
2022/07/05 05:46:49;;;;;;;4.60;3.70;;;;;;;22.43;40.48;94024.69;5006592;28;20401;-79
2022/07/05 05:49:15;;;;;;;5.20;3.30;;;;;;;22.46;41.23;94029.34;5009406;28;20045;-80
2022/07/05 05:51:40;;;;;;;8.63;4.88;;;;;;;22.77;41.15;94022.44;5007970;28;20646;-80
2022/07/05 05:54:05;;;;;;;4.75;3.17;;;;;;;22.68;41.29;94020.13;5007723;28;20037;-80
2022/07/05 05:56:31;;;;;;;4.00;3.53;;;;;;;22.73;40.71;94015.06;5010317;28;20034;-80
2022/07/05 05:58:56;;;;;;;6.45;3.85;;;;;;;23.03;40.86;94047.28;5006702;28;20036;-79
2022/07/05 06:01:21;;;;;;;4.30;3.78;;;;;;;23.17;40.79;94048.47;5012122;28;20046;-80
2022/07/05 06:03:47;;;;;;;5.38;4.10;;;;;;;22.96;39.95;94022.13;5012977;28;20088;-80
2022/07/05 06:06:12;;;;;;;4.57;3.30;;;;;;;23.00;40.29;94048.06;5018152;28;20088;-78
2022/07/05 06:08:37;;;;;;;5.20;3.55;;;;;;;23.15;40.14;94043.44;5023539;28;20061;-78
2022/07/05 06:11:06;;;;;;;10.13;4.75;;;;;;;23.49;39.16;94038.41;5024504;28;20629;-77
2022/07/05 06:13:32;;;;;;;4.57;3.42;;;;;;;23.57;39.39;94048.09;5024452;28;20034;-77
2022/07/05 06:15:57;;;;;;;3.85;2.90;;;;;;;23.29;39.69;94034.50;5024216;28;20037;-77
2022/07/05 06:18:22;;;;;;;7.80;3.90;;;;;;;23.47;39.35;94038.75;5026495;28;20037;-77
2022/07/05 06:20:48;;;;;;;6.72;3.97;;;;;;;23.72;39.16;94055.06;5026712;28;20048;-79
2022/07/05 06:23:13;;;;;;;4.97;3.58;;;;;;;23.54;39.24;94044.22;5026394;28;20048;-77
2022/07/05 06:25:39;;;;;;;5.10;3.17;;;;;;;23.58;37.77;94036.06;5028208;28;20038;-79
2022/07/05 06:28:07;;;;;;;3.35;2.85;;;;;;;23.60;37.94;94036.47;5022328;28;20049;-79
2022/07/05 06:30:35;;;;;;;7.07;3.28;;;;;;;23.82;37.27;94031.75;5026441;28;20057;-78
2022/07/05 06:33:00;;;;;;;4.03;3.35;;;;;;;23.83;38.31;94042.25;5025586;28;20069;-77
2022/07/05 06:35:27;;;;;;;4.60;2.83;;;;;;;24.01;39.38;94061.97;5022168;28;20061;-78
2022/07/05 06:37:59;;;;;;;5.18;3.63;;;;;;;23.72;38.21;94010.81;5026361;28;20101;-78
2022/07/05 06:40:29;;;;;;;3.67;3.05;;;;;;;23.82;39.42;94054.25;5020430;28;20028;-78
2022/07/05 06:42:57;;;;;;;3.58;3.15;;;;;;;24.06;39.14;94049.94;5020334;28;20030;-78
2022/07/05 06:45:24;;;;;;;5.22;3.30;;;;;;;23.73;38.72;94021.31;5023307;28;20033;-78
2022/07/05 06:48:01;;;;;;;5.07;3.95;;;;;;;23.64;38.93;94052.75;5030534;28;20096;-78
2022/07/05 06:50:28;;;;;;;3.95;3.15;;;;;;;23.53;40.42;94033.75;5026252;28;20120;-78
2022/07/05 06:52:54;;;;;;;3.85;3.42;;;;;;;23.84;40.63;94024.78;5025614;28;20028;-77
2022/07/05 06:55:20;;;;;;;6.18;3.45;;;;;;;24.00;40.03;94027.81;5025193;28;20022;-78
2022/07/05 06:57:45;;;;;;;6.03;3.95;;;;;;;24.13;38.89;94035.59;5026613;28;20454;-77
2022/07/05 07:00:12;;;;;;;5.13;3.60;;;;;;;23.85;40.36;94034.47;5024121;28;20061;-78
2022/07/05 07:02:37;;;;;;;5.82;3.70;;;;;;;24.13;40.83;94013.84;5025622;28;20029;-79
2022/07/05 07:05:03;;;;;;;6.57;3.78;;;;;;;24.48;40.75;94023.78;5028256;28;20036;-77
2022/07/05 07:10:18;;;;;;;5.57;4.25;;;;;;;24.30;38.72;94007.56;5027158;28;20040;-79
2022/07/05 07:12:43;;;;;;;6.65;3.70;;;;;;;24.42;38.75;94009.84;5026090;28;20041;-78
2022/07/05 07:15:10;;;;;;;9.73;3.65;;;;;;;24.47;39.14;94017.56;5027798;28;20026;-78
2022/07/05 07:17:35;;;;;;;5.47;3.65;;;;;;;24.33;38.50;94039.38;5028812;28;20205;-79
2022/07/05 07:20:01;;;;;;;6.55;4.05;;;;;;;24.27;39.02;94013.78;5027267;28;20034;-78
2022/07/05 07:22:26;;;;;;;7.25;3.40;;;;;;;24.36;38.87;94027.72;5026629;28;20126;-78
2022/07/05 07:24:53;;;;;;;4.72;3.70;;;;;;;24.51;39.50;94034.63;5028654;28;20399;-79
2022/07/05 07:27:18;;;;;;;5.07;4.50;;;;;;;23.82;39.90;94020.88;5030112;28;20040;-78
2022/07/05 07:29:44;;;;;;;6.50;4.50;;;;;;;23.67;39.80;94013.94;5030320;28;20093;-78
2022/07/05 07:32:09;;;;;;;5.78;4.28;;;;;;;24.04;39.31;94033.25;5032987;28;20033;-79
2022/07/05 07:34:36;;;;;;;6.07;3.53;;;;;;;24.33;39.65;94044.81;5028252;28;20140;-78
2022/07/05 07:37:03;;;;;;;7.13;4.18;;;;;;;24.46;40.34;94037.78;5026763;28;20034;-78
2022/07/05 07:39:28;;;;;;;7.78;4.63;;;;;;;24.31;40.00;94028.13;5026764;28;20037;-77
2022/07/05 07:41:54;;;;;;;4.10;3.67;;;;;;;24.56;39.22;94014.41;5024866;28;20041;-78
2022/07/05 07:44:19;;;;;;;5.65;3.92;;;;;;;24.79;39.42;94026.34;5026601;28;20037;-78
2022/07/05 07:46:46;;;;;;;7.03;4.28;;;;;;;24.88;39.74;94025.16;5024616;28;20060;-78
2022/07/05 07:49:12;;;;;;;5.40;3.80;;;;;;;25.15;39.37;94034.28;5029287;28;20079;-78
2022/07/05 07:51:37;;;;;;;6.50;4.15;;;;;;;25.02;39.88;94000.56;5027685;28;20034;-77
2022/07/05 07:54:03;;;;;;;8.68;4.22;;;;;;;24.94;39.01;94012.66;5027215;28;20044;-78
2022/07/05 07:56:29;;;;;;;4.80;4.13;;;;;;;24.51;40.31;94007.44;5026965;28;20053;-77
2022/07/05 07:58:54;;;;;;;5.90;4.03;;;;;;;24.78;40.10;94022.06;5026122;28;20021;-77
2022/07/05 08:01:20;;;;;;;7.95;4.80;;;;;;;24.75;39.68;94009.28;5025587;28;20708;-77
2022/07/05 08:03:45;;;;;;;10.15;4.20;;;;;;;24.87;38.81;94037.19;5026281;28;20029;-79
2022/07/05 08:06:12;;;;;;;7.00;4.30;;;;;;;24.75;39.26;94005.78;5026243;28;20038;-78
2022/07/05 08:08:38;;;;;;;5.03;4.35;;;;;;;25.01;40.03;94027.00;5029574;28;20044;-77
2022/07/05 08:11:05;;;;;;;5.55;3.95;;;;;;;25.10;40.19;94038.19;5027450;28;20032;-78
2022/07/05 08:13:31;;;;;;;4.95;4.32;;;;;;;25.14;38.53;94032.72;5029075;28;20029;-77
2022/07/05 08:15:57;;;;;;;7.75;4.13;;;;;;;25.33;37.90;94006.94;5027412;28;20034;-78
2022/07/05 08:23:51;;;;;;;8.00;4.93;;;;;;;25.21;38.14;94019.06;5029234;28;20080;-79
2022/07/05 08:26:16;;;;;;;4.75;4.18;;;;;;;25.12;38.82;94016.81;5024373;28;20070;-77
2022/07/05 08:28:42;;;;;;;5.32;4.40;;;;;;;25.39;39.26;94019.72;5022614;28;20044;-77
2022/07/05 08:31:07;;;;;;;6.40;4.68;;;;;;;25.69;38.29;94021.78;5016792;28;20052;-78
2022/07/05 08:33:32;;;;;;;7.85;3.72;;;;;;;25.70;37.77;94010.47;5017461;28;20493;-77
2022/07/05 08:35:58;;;;;;;4.95;4.20;;;;;;;24.61;38.06;93826.38;5014601;28;20049;-79
2022/07/05 08:38:23;;;;;;;5.80;4.05;;;;;;;26.02;38.33;94014.84;5014402;28;20079;-79
2022/07/05 08:40:51;;;;;;;5.80;4.30;;;;;;;25.97;38.97;94013.31;5019464;28;20029;-77
2022/07/05 08:43:18;;;;;;;4.75;3.80;;;;;;;25.93;38.29;94001.69;5019536;28;20037;-77
2022/07/05 08:45:48;;;;;;;4.80;4.35;;;;;;;25.90;37.80;93982.69;5024683;28;20042;-78
2022/07/05 08:48:16;;;;;;;8.18;4.57;;;;;;;25.90;37.62;93997.06;5019362;28;20449;-77
2022/07/05 08:50:43;;;;;;;5.63;4.45;;;;;;;25.57;38.49;93952.25;5019975;28;20045;-76
2022/07/05 08:53:09;;;;;;;6.72;4.80;;;;;;;25.99;38.36;94002.03;5017796;28;20025;-77
2022/07/05 08:55:34;;;;;;;6.70;5.03;;;;;;;26.06;38.14;93999.97;5018733;28;20105;-77
2022/07/05 08:58:00;;;;;;;7.35;4.50;;;;;;;25.88;38.77;93944.13;5019881;28;20622;-77
2022/07/05 09:00:26;;;;;;;6.93;5.22;;;;;;;26.06;38.50;93999.97;5018146;28;20041;-77
2022/07/05 09:02:53;;;;;;;7.85;5.18;;;;;;;26.18;38.72;93990.50;5017161;28;20422;-77
2022/07/05 09:05:20;;;;;;;6.28;4.93;;;;;;;26.31;38.79;93991.50;5017222;28;20045;-76
2022/07/05 09:07:59;;;;;;;5.03;4.00;;;;;;;26.49;37.10;93991.31;5018066;28;20525;-78
2022/07/05 09:10:31;;;;;;;6.78;4.63;;;;;;;26.51;37.22;93992.44;5023893;28;20048;-77
2022/07/05 09:12:57;;;;;;;5.72;4.63;;;;;;;26.55;36.88;94000.56;5019633;28;20034;-77
2022/07/05 09:15:23;;;;;;;4.80;4.28;;;;;;;26.44;39.10;93986.28;5018843;28;20045;-76
2022/07/05 09:17:49;;;;;;;6.82;4.30;;;;;;;26.47;38.33;93982.75;5018481;28;20042;-77
2022/07/05 09:20:17;;;;;;;6.40;4.72;;;;;;;26.53;37.61;93975.69;5018694;28;20137;-77
2022/07/05 09:22:54;;;;;;;11.02;4.70;;;;;;;26.65;37.64;93966.91;5019499;28;20541;-77
2022/07/05 09:25:28;;;;;;;8.43;4.78;;;;;;;26.76;36.39;93969.50;5018616;28;20036;-79
2022/07/05 09:27:58;;;;;;;;;;;;;;;26.83;36.86;93974.84;5018181;28;20033;-77
2022/07/05 09:30:37;;;;;;;4.45;3.95;;;;;;;26.75;37.13;93967.94;5018817;28;19932;-78
2022/07/05 09:33:11;;;;;;;5.70;4.57;;;;;;;26.64;37.48;93972.81;5018439;28;20125;-79
2022/07/05 09:35:52;;;;;;;10.13;4.33;;;;;;;26.80;36.00;93970.22;5018172;28;20038;-77
2022/07/05 09:38:19;;;;;;;7.35;4.85;;;;;;;26.89;37.01;93967.72;5018575;28;20037;-77
2022/07/05 09:40:47;;;;;;;7.47;4.47;;;;;;;26.66;37.86;93952.09;5020783;28;20033;-78
2022/07/05 09:43:14;;;;;;;4.68;4.25;;;;;;;26.53;37.13;93943.72;5018372;28;20038;-78
2022/07/05 09:45:49;;;;;;;4.65;4.25;;;;;;;26.60;37.64;93953.75;5019041;28;20033;-77
2022/07/05 09:48:14;;;;;;;9.25;4.07;;;;;;;26.81;35.92;93949.94;5018800;28;20105;-78
2022/07/05 09:50:40;;;;;;;9.13;4.50;;;;;;;26.86;35.72;93936.59;5020148;28;20531;-78
2022/07/05 09:53:05;;;;;;;11.05;4.10;;;;;;;27.01;35.78;93944.56;5017666;28;20017;-78
2022/07/05 09:55:31;;;;;;;10.15;4.97;;;;;;;27.08;35.50;93947.22;5020489;28;20032;-78
2022/07/05 09:57:56;;;;;;;6.65;5.03;;;;;;;27.09;35.17;93946.78;5018380;28;20501;-77
2022/07/05 10:00:22;;;;;;;4.80;3.75;;;;;;;27.03;35.93;93932.09;5017967;28;20343;-77
2022/07/05 10:02:51;;;;;;;7.80;4.47;;;;;;;27.20;36.71;93947.38;5019509;28;20060;-78
2022/07/05 10:05:22;;;;;;;6.07;4.80;;;;;;;27.29;35.50;93942.16;5019897;28;20044;-78
2022/07/05 10:07:48;;;;;;;7.63;4.65;;;;;;;27.40;36.57;93931.03;5017798;28;20053;-78
2022/07/05 10:10:16;;;;;;;7.60;4.10;;;;;;;27.49;36.80;93930.50;5018344;28;20067;-78
2022/07/05 10:12:43;;;;;;;5.20;4.18;;;;;;;27.57;35.22;93929.22;5017002;28;20040;-77
2022/07/05 10:15:11;;;;;;;5.13;3.90;;;;;;;27.53;36.37;93910.13;5018928;28;20033;-78
2022/07/05 10:17:40;;;;;;;8.32;4.75;;;;;;;27.70;36.08;93928.16;5019280;28;20063;-77
2022/07/05 10:20:23;;;;;;;4.47;4.07;;;;;;;27.78;35.35;93923.31;5017928;28;20048;-78
2022/07/05 10:22:49;;;;;;;4.47;4.07;;;;;;;27.68;36.48;93918.84;5019980;28;20186;-77
2022/07/05 10:25:18;;;;;;;6.00;3.90;;;;;;;27.72;35.43;93916.81;5020102;28;20054;-77
2022/07/05 10:27:43;;;;;;;4.93;4.32;;;;;;;27.71;35.38;93918.00;5018103;28;21448;-79
2022/07/05 10:30:11;;;;;;;7.90;5.38;;;;;;;27.76;35.56;93907.38;5020992;28;20033;-78
2022/07/05 10:32:38;;;;;;;6.00;4.78;;;;;;;27.64;36.23;93890.81;5019919;28;20044;-78
2022/07/05 10:35:05;;;;;;;7.13;4.55;;;;;;;27.67;36.79;93907.13;5018030;28;20025;-79
2022/07/05 10:37:33;;;;;;;5.70;5.20;;;;;;;27.70;38.86;93905.53;5016463;28;20116;-77
2022/07/05 10:40:01;;;;;;;4.68;4.28;;;;;;;27.75;36.32;93896.84;5018880;28;20045;-77
2022/07/05 10:42:32;;;;;;;5.15;4.45;;;;;;;27.82;36.59;93891.22;5015831;28;20132;-76
2022/07/05 10:44:57;;;;;;;5.50;4.07;;;;;;;27.74;36.10;93885.16;5025930;28;20053;-77
2022/07/05 10:47:25;;;;;;;6.80;4.63;;;;;;;27.94;36.25;93898.03;5021332;28;20073;-77
2022/07/05 10:50:03;;;;;;;8.77;4.35;;;;;;;28.04;35.82;93903.28;5024044;28;20017;-77
2022/07/05 10:52:28;;;;;;;6.45;3.90;;;;;;;27.96;36.19;93888.19;5021700;28;20128;-77
2022/07/05 10:55:25;;;;;;;6.38;4.63;;;;;;;28.16;36.24;93896.41;5021216;28;20156;-77
2022/07/05 10:58:16;;;;;;;5.10;3.75;;;;;;;28.22;37.23;93897.47;5022819;28;20048;-77
2022/07/05 11:00:43;;;;;;;7.30;4.07;;;;;;;28.17;36.00;93870.63;5018627;28;20519;-77
2022/07/05 11:03:37;;;;;;;5.63;4.35;;;;;;;28.37;35.48;93889.72;5013127;28;20045;-78
2022/07/05 11:06:04;;;;;;;5.73;4.27;;;;;;;28.38;35.61;93886.56;5022435;28;20152;-78
2022/07/05 11:08:32;;;;;;;4.50;4.10;;;;;;;28.44;35.62;93887.59;5025483;28;20037;-77
2022/07/05 11:11:13;;;;;;;3.92;3.63;;;;;;;28.36;35.38;93863.53;5017339;28;20025;-77
2022/07/05 11:13:43;;;;;;;5.20;3.65;;;;;;;28.39;34.46;93859.97;5018727;28;20094;-77
2022/07/05 11:16:27;;;;;;;4.60;4.20;;;;;;;28.45;33.93;93871.97;5018413;28;20025;-77
2022/07/05 11:19:06;;;;;;;5.43;4.35;;;;;;;28.39;34.17;93852.53;5017078;28;20040;-76
2022/07/05 11:21:32;;;;;;;7.80;4.18;;;;;;;28.36;33.01;93841.66;5015572;28;20033;-76
2022/07/05 11:24:22;;;;;;;4.40;4.00;;;;;;;28.51;34.27;93872.97;5016086;28;20073;-78
2022/07/05 11:26:49;;;;;;;6.95;4.25;;;;;;;28.57;33.88;93879.47;5016200;28;20038;-78
2022/07/05 11:29:39;;;;;;;7.40;4.45;;;;;;;28.59;33.28;93871.63;5017508;28;20072;-77
2022/07/05 11:32:06;;;;;;;6.65;4.22;;;;;;;28.47;38.55;93864.09;5015370;28;20049;-78
2022/07/05 11:34:36;;;;;;;4.95;4.45;;;;;;;28.41;38.56;93860.31;5015783;28;20555;-77
2022/07/05 11:37:38;;;;;;;4.63;4.13;;;;;;;28.69;34.71;93865.16;5020477;28;20030;-78
2022/07/05 11:42:37;;;;;;;4.10;3.70;;;;;;;28.83;34.08;93864.81;5022607;28;20119;-77
2022/07/05 11:45:03;;;;;;;5.10;4.60;;;;;;;28.77;33.08;93852.84;5021594;28;20042;-77
2022/07/05 11:47:29;;;;;;;4.90;3.47;;;;;;;28.77;32.66;93850.09;5025035;28;20029;-77